Terminal Aerodrome Forecast
Issued by NWS

Home | Current Version | Previous Version | Text Only | Print | Product List | Glossary On
Versions: 1 2 3 4 5 6 7 8 9 10 11 12 13 14 15 16 17
000
FTUS46 KMTR 222300
TAFSJC
TAF
KSJC 222340Z 2300/2324 31011KT P6SM FEW012 SCT030 SCT200
     FM230200 30006KT P6SM FEW030 SCT200
     FM230800 31004KT P6SM SCT200=

USA.gov is the U.S. government's official web portal to all federal, state and local government web resources and services.